createdAt,value
2018-05-02T03:19:37.911Z,0
2018-05-02T03:19:58.223Z,0
2018-05-02T03:20:19.060Z,0
2018-05-02T03:20:39.373Z,0
2018-05-02T04:10:29.675Z,5
2018-05-02T04:10:50.326Z,5
2018-05-02T04:11:10.592Z,5
2018-05-02T04:11:30.824Z,5
2018-05-02T04:11:51.027Z,5
2018-05-02T04:24:17.961Z,5
2018-05-02T04:28:06.165Z,5
2018-05-02T04:28:26.485Z,5
2018-05-02T04:28:46.712Z,5
2018-05-02T04:34:32.577Z,10
2018-05-02T04:34:53.688Z,10
2018-05-02T04:35:13.966Z,10
2018-05-02T04:35:34.217Z,10
2018-05-02T05:42:53.508Z,5
2018-05-02T06:07:32.285Z,5
2018-05-02T06:07:52.566Z,5
2018-05-02T06:08:14.260Z,5
2018-05-02T06:08:34.432Z,5
2018-05-02T06:08:55.284Z,5
2018-05-02T06:15:45.758Z,10
2018-05-02T06:16:06.048Z,10
2018-05-02T06:16:26.282Z,10
2018-05-02T06:19:51.527Z,10
2018-05-02T06:20:11.864Z,10
2018-05-02T06:20:32.684Z,10
2018-05-02T06:20:52.919Z,10
2018-05-02T06:21:13.734Z,10
2018-05-02T06:21:34.095Z,10
2018-05-02T06:21:54.355Z,10
2018-05-02T06:22:15.408Z,10
2018-05-02T06:22:35.619Z,10
2018-05-02T06:22:56.832Z,10
2018-05-02T06:23:17.100Z,10
2018-05-02T06:23:37.303Z,10
2018-05-02T06:23:58.228Z,10
2018-05-02T06:24:18.490Z,15
2018-05-02T06:24:39.329Z,15
2018-05-02T06:25:00.214Z,15
2018-05-02T06:25:21.692Z,15
2018-05-02T06:25:41.856Z,15
2018-05-02T06:26:02.136Z,15
2018-05-02T06:26:22.494Z,15
2018-05-02T06:26:42.703Z,15
2018-05-02T06:27:02.971Z,15
2018-05-02T06:29:00.690Z,15
2018-05-02T06:29:21.654Z,15
2018-05-02T06:29:41.969Z,15
2018-05-02T06:30:02.123Z,15
2018-05-02T06:30:23.140Z,15
2018-05-02T06:30:46.252Z,15
2018-05-02T06:31:06.474Z,15
2018-05-02T06:31:26.701Z,15
2018-05-02T06:31:47.059Z,20
2018-05-02T06:32:08.193Z,20
2018-05-02T06:32:29.231Z,20
2018-05-02T06:32:49.619Z,20
2018-05-02T06:33:10.806Z,20
2018-05-02T06:33:31.786Z,20
2018-05-02T06:33:52.116Z,20
2018-05-02T06:34:12.333Z,20
2018-05-02T06:34:34.025Z,20
2018-05-02T06:34:54.225Z,20
2018-05-02T06:35:15.108Z,25
2018-05-02T06:35:35.349Z,25
2018-05-02T06:35:55.546Z,25
2018-05-02T06:36:15.857Z,25
2018-05-02T06:36:36.195Z,25
2018-05-02T06:36:56.441Z,25
2018-05-02T06:37:18.180Z,25
2018-05-02T06:37:39.151Z,25
2018-05-02T06:38:00.134Z,25
2018-05-02T06:38:21.686Z,25
2018-05-02T06:38:41.963Z,25
2018-05-02T06:39:02.320Z,25
2018-05-02T06:39:22.633Z,25
2018-05-02T06:39:43.011Z,25
2018-05-02T06:40:03.281Z,25
2018-05-02T06:40:23.643Z,25
2018-05-02T06:40:44.487Z,25
2018-05-02T06:41:04.826Z,25
2018-05-02T06:41:25.772Z,25
2018-05-02T06:41:46.066Z,25
2018-05-02T06:42:06.257Z,25
2018-05-02T06:42:26.544Z,25
2018-05-02T06:42:46.776Z,25
2018-05-02T06:43:07.552Z,25
2018-05-02T06:43:29.818Z,25
2018-05-02T06:43:50.914Z,25
2018-05-02T06:44:11.208Z,25
2018-05-02T06:44:32.224Z,25
2018-05-02T06:44:52.641Z,25
2018-05-02T06:45:12.897Z,25
2018-05-02T06:45:34.293Z,25
2018-05-02T06:45:54.617Z,25
2018-05-02T06:46:15.004Z,25
2018-05-02T06:46:36.414Z,25
2018-05-02T06:46:57.396Z,25
2018-05-02T06:47:17.743Z,25
2018-05-02T06:47:38.094Z,25
2018-05-02T06:47:58.870Z,25
2018-05-02T06:48:19.131Z,25
2018-05-02T06:48:39.414Z,25
2018-05-02T06:48:59.709Z,25
2018-05-02T06:49:20.123Z,25
2018-05-02T06:49:40.442Z,25
2018-05-02T06:50:00.706Z,25
2018-05-02T06:50:22.514Z,25
2018-05-02T06:50:43.788Z,25
2018-05-02T06:51:04.213Z,25
2018-05-02T06:51:25.379Z,25
2018-05-02T06:51:45.639Z,25
2018-05-02T06:52:05.851Z,20
2018-05-02T06:52:26.065Z,20
2018-05-02T06:52:46.291Z,20
2018-05-02T06:53:08.180Z,20
2018-05-02T06:53:28.339Z,20
2018-05-02T06:53:48.673Z,20
2018-05-02T06:54:08.973Z,20
2018-05-02T06:54:29.807Z,20
2018-05-02T06:54:50.157Z,20
2018-05-02T06:55:10.443Z,15
2018-05-02T06:55:32.294Z,15
2018-05-02T06:55:52.615Z,15
2018-05-02T06:56:12.983Z,15
2018-05-02T06:56:34.254Z,15
2018-05-02T06:56:54.613Z,15
2018-05-02T07:08:29.473Z,15
2018-05-02T07:09:33.824Z,15
2018-05-02T07:10:31.399Z,15
2018-05-02T07:16:47.396Z,15
2018-05-02T07:17:50.729Z,15
2018-05-02T07:18:11.099Z,15
2018-05-02T07:18:58.743Z,15
2018-05-02T07:20:38.488Z,15
2018-05-02T07:20:58.960Z,15
2018-05-02T07:22:08.370Z,15
2018-05-02T07:22:54.253Z,15
2018-05-02T07:23:15.663Z,15
2018-05-02T07:24:11.449Z,15
2018-05-02T07:25:09.501Z,20
2018-05-02T07:25:54.585Z,20
2018-05-02T07:26:15.779Z,20
2018-05-02T07:26:37.387Z,25
2018-05-02T07:26:59.316Z,25
2018-05-02T07:27:20.345Z,25
2018-05-02T07:27:40.847Z,30
2018-05-02T07:28:01.165Z,30
2018-05-02T07:28:21.508Z,30
2018-05-02T07:28:41.939Z,35
2018-05-02T07:29:02.361Z,40
2018-05-02T07:29:23.313Z,40
2018-05-02T07:29:43.697Z,40
2018-05-02T07:30:03.977Z,45
2018-05-02T07:30:24.284Z,45
2018-05-02T07:30:44.667Z,45
2018-05-02T07:31:06.861Z,45
2018-05-02T07:31:27.134Z,45
2018-05-02T07:31:47.479Z,45
2018-05-02T07:32:07.758Z,45
2018-05-02T07:32:28.181Z,45
2018-05-02T07:32:49.504Z,40
2018-05-02T07:33:09.813Z,40
2018-05-02T07:33:31.891Z,40
2018-05-02T07:33:52.241Z,40
2018-05-02T07:34:13.396Z,40
2018-05-02T07:34:33.955Z,40
2018-05-02T07:34:54.302Z,40
2018-05-02T07:35:15.261Z,40
2018-05-02T07:35:36.393Z,35
2018-05-02T07:35:58.393Z,35
2018-05-02T07:36:19.393Z,35
2018-05-02T07:36:40.836Z,35
2018-05-02T07:37:01.200Z,35
2018-05-02T07:37:21.630Z,35
2018-05-02T07:37:41.976Z,35
2018-05-02T07:38:02.540Z,35
2018-05-02T07:38:22.855Z,35
2018-05-02T07:38:44.303Z,35
2018-05-02T07:39:05.296Z,35
2018-05-02T07:39:26.333Z,40
2018-05-02T07:39:46.728Z,40
2018-05-02T07:40:07.854Z,40
2018-05-02T07:40:27.955Z,45
2018-05-02T07:40:48.351Z,45
2018-05-02T07:41:08.824Z,50
2018-05-02T07:41:29.235Z,50
2018-05-02T07:41:51.015Z,55
2018-05-02T07:42:11.526Z,55
2018-05-02T07:42:31.909Z,55
2018-05-02T07:42:52.220Z,60
2018-05-02T07:43:12.680Z,60
2018-05-02T07:43:33.021Z,60
2018-05-02T07:43:54.398Z,60
2018-05-02T07:44:14.944Z,60
2018-05-02T07:44:35.331Z,60
2018-05-02T07:44:56.419Z,60
2018-05-02T07:45:17.861Z,60
2018-05-02T07:45:38.819Z,60
2018-05-02T07:45:59.294Z,65
2018-05-02T07:46:20.004Z,65
2018-05-02T07:46:40.364Z,65
2018-05-02T07:47:00.904Z,65
2018-05-02T07:47:21.165Z,65
2018-05-02T07:47:41.572Z,65
2018-05-02T07:48:02.734Z,70
2018-05-02T07:48:23.058Z,70
2018-05-02T07:48:44.591Z,70
2018-05-02T07:49:04.982Z,70
2018-05-02T07:49:26.152Z,70
2018-05-02T07:49:46.561Z,70
2018-05-02T07:50:06.918Z,65
2018-05-02T07:50:27.241Z,65
2018-05-02T07:50:47.610Z,65
2018-05-02T07:51:09.028Z,60
2018-05-02T07:51:29.487Z,60
2018-05-02T07:51:50.902Z,55
2018-05-02T07:52:11.654Z,60
2018-05-02T07:52:31.980Z,50
2018-05-02T07:52:52.274Z,50
2018-05-02T07:53:12.647Z,50
2018-05-02T07:53:32.989Z,50
2018-05-02T07:53:53.488Z,45
2018-05-02T07:54:14.863Z,45
2018-05-02T07:54:36.346Z,50
2018-05-02T07:54:57.425Z,50
2018-05-02T07:55:17.805Z,50
2018-05-02T07:55:38.199Z,55
2018-05-02T07:55:58.525Z,55
2018-05-02T07:56:19.018Z,60
2018-05-02T07:56:39.557Z,60
2018-05-02T07:57:01.513Z,60
2018-05-02T07:57:21.864Z,60
2018-05-02T07:57:42.208Z,60
2018-05-02T07:58:03.220Z,60
2018-05-02T07:58:24.210Z,60
2018-05-02T07:58:44.547Z,60
2018-05-02T07:59:04.826Z,60
2018-05-02T07:59:25.158Z,55
2018-05-02T07:59:45.517Z,55
2018-05-02T08:00:06.016Z,55
2018-05-02T08:00:26.488Z,55
2018-05-02T08:00:47.021Z,55
2018-05-02T08:01:07.351Z,50
2018-05-02T08:01:27.784Z,50
2018-05-02T08:01:48.130Z,50
2018-05-02T08:02:08.433Z,45
2018-05-02T08:02:28.761Z,45
2018-05-02T08:02:49.100Z,45
2018-05-02T08:03:09.370Z,45
2018-05-02T08:03:29.741Z,45
2018-05-02T08:03:50.776Z,45
2018-05-02T08:04:11.246Z,45
2018-05-02T08:04:31.885Z,45
2018-05-02T08:04:52.263Z,45
2018-05-02T08:05:13.306Z,45
2018-05-02T08:05:33.868Z,50
2018-05-02T08:05:54.402Z,50
2018-05-02T08:06:15.123Z,50
2018-05-02T08:06:35.715Z,50
2018-05-02T08:06:56.853Z,55
2018-05-02T08:07:17.280Z,55
2018-05-02T08:07:38.288Z,60
2018-05-02T08:07:59.471Z,60
2018-05-02T08:08:19.940Z,60
2018-05-02T08:08:41.352Z,60
2018-05-02T08:09:01.674Z,65
2018-05-02T08:09:22.107Z,65
2018-05-02T08:09:42.561Z,65
2018-05-02T08:10:02.996Z,65
2018-05-02T08:10:24.021Z,65
2018-05-02T08:10:44.714Z,65
2018-05-02T08:11:05.974Z,65
2018-05-02T08:11:26.403Z,65
2018-05-02T08:11:47.458Z,65
2018-05-02T08:12:07.989Z,65
2018-05-02T08:12:29.374Z,70
2018-05-02T08:12:50.728Z,70
2018-05-02T08:13:11.317Z,70
2018-05-02T08:13:31.995Z,70
2018-05-02T08:13:52.622Z,70
2018-05-02T08:14:13.388Z,70
2018-05-02T08:14:33.855Z,70
2018-05-02T08:14:54.694Z,70
2018-05-02T08:15:14.973Z,70
2018-05-02T08:15:35.459Z,75
2018-05-02T08:15:55.831Z,75
2018-05-02T08:16:16.275Z,75
2018-05-02T08:16:36.981Z,75
2018-05-02T08:16:57.310Z,75
2018-05-02T08:17:18.014Z,75
2018-05-02T08:17:39.421Z,75
2018-05-02T08:18:01.118Z,75
2018-05-02T08:18:21.536Z,75
2018-05-02T08:18:42.966Z,75
2018-05-02T08:19:03.712Z,75
2018-05-02T08:19:24.005Z,75
2018-05-02T08:19:44.639Z,75
2018-05-02T08:20:05.282Z,75
2018-05-02T08:20:26.922Z,75
2018-05-02T08:20:48.378Z,75
2018-05-02T08:21:08.704Z,75
2018-05-02T08:21:29.025Z,70
2018-05-02T08:21:49.655Z,70
2018-05-02T08:22:10.374Z,70
2018-05-02T08:22:31.725Z,70
2018-05-02T08:22:52.894Z,70
2018-05-02T08:23:13.220Z,70
2018-05-02T08:23:34.347Z,65
2018-05-02T08:23:54.812Z,65
2018-05-02T08:24:15.363Z,65
2018-05-02T08:24:36.383Z,60
2018-05-02T08:24:57.292Z,60
2018-05-02T08:25:18.783Z,60
2018-05-02T08:25:39.185Z,60
2018-05-02T08:26:00.436Z,60
2018-05-02T08:26:20.791Z,60
2018-05-02T08:26:41.301Z,60
2018-05-02T08:27:01.724Z,60
2018-05-02T08:27:22.108Z,55
2018-05-02T08:27:42.475Z,55
2018-05-02T08:28:04.400Z,55
2018-05-02T08:28:24.823Z,55
2018-05-02T08:28:45.281Z,55
2018-05-02T08:29:05.653Z,50
2018-05-02T08:29:26.126Z,50
2018-05-02T08:29:46.617Z,50
2018-05-02T08:30:07.837Z,50
2018-05-02T08:30:28.408Z,50
2018-05-02T08:30:48.751Z,50
2018-05-02T08:31:09.077Z,50
2018-05-02T08:31:29.417Z,50
2018-05-02T08:31:50.864Z,50
2018-05-02T08:32:11.178Z,50
2018-05-02T08:32:31.631Z,45
2018-05-02T08:32:52.441Z,45
2018-05-02T08:33:12.977Z,45
2018-05-02T08:33:33.274Z,45
2018-05-02T08:33:53.586Z,45
2018-05-02T08:34:13.762Z,45
2018-05-02T08:34:33.916Z,45
2018-05-02T08:34:54.190Z,45
2018-05-02T08:35:14.391Z,45
2018-05-02T08:35:34.806Z,45
2018-05-02T08:35:55.861Z,45
2018-05-02T08:36:16.095Z,45
2018-05-02T08:36:36.378Z,45
2018-05-02T08:36:56.771Z,45
2018-05-02T08:37:17.327Z,45
2018-05-02T08:37:38.534Z,45
2018-05-02T08:37:59.448Z,45
2018-05-02T08:38:20.123Z,45
2018-05-02T08:38:40.666Z,45
2018-05-02T08:39:01.173Z,50
2018-05-02T08:39:22.320Z,50
2018-05-02T08:39:42.682Z,50
2018-05-02T08:40:03.209Z,50
2018-05-02T08:40:24.373Z,50
2018-05-02T08:40:44.911Z,50
2018-05-02T08:41:05.292Z,55
2018-05-02T08:41:25.601Z,55
2018-05-02T08:41:46.124Z,55
2018-05-02T08:42:06.519Z,55
2018-05-02T08:42:26.851Z,55
2018-05-02T08:42:47.167Z,60
2018-05-02T08:43:07.446Z,60
2018-05-02T08:43:27.782Z,60
2018-05-02T08:43:48.698Z,65
2018-05-02T08:44:09.104Z,65
2018-05-02T08:44:29.326Z,70
2018-05-02T08:44:50.293Z,70
2018-05-02T08:45:10.532Z,75
2018-05-02T08:45:30.907Z,75
2018-05-02T08:45:51.279Z,75
2018-05-02T08:46:12.337Z,75
2018-05-02T08:46:32.650Z,75
2018-05-02T08:46:53.926Z,75
2018-05-02T08:47:14.940Z,75
2018-05-02T08:47:35.873Z,75
2018-05-02T08:47:56.207Z,75
2018-05-02T08:48:16.449Z,75
2018-05-02T08:48:37.692Z,80
2018-05-02T08:48:59.300Z,80
2018-05-02T08:49:19.625Z,80
2018-05-02T08:49:40.443Z,75
2018-05-02T08:50:01.062Z,75
2018-05-02T08:50:21.183Z,75
2018-05-02T08:50:41.460Z,70
2018-05-02T08:51:01.645Z,70
2018-05-02T08:51:22.038Z,65
2018-05-02T08:51:42.299Z,65
2018-05-02T08:52:02.609Z,65
2018-05-02T08:52:22.956Z,65
2018-05-02T08:52:43.194Z,65
2018-05-02T08:53:03.495Z,65
2018-05-02T08:53:23.847Z,65
2018-05-02T08:53:44.280Z,65
2018-05-02T08:54:04.610Z,65
2018-05-02T08:54:25.088Z,65
2018-05-02T08:54:46.817Z,65
2018-05-02T08:55:07.745Z,65
2018-05-02T08:55:28.907Z,65
2018-05-02T08:55:50.085Z,70
2018-05-02T08:56:10.705Z,70
2018-05-02T08:56:32.458Z,70
2018-05-02T08:56:53.866Z,70
2018-05-02T08:57:14.679Z,70
2018-05-02T08:57:35.325Z,75
2018-05-02T08:57:56.216Z,75
2018-05-02T08:58:16.460Z,75
2018-05-02T08:58:36.876Z,75
2018-05-02T08:58:57.182Z,75
2018-05-02T08:59:17.489Z,75
2018-05-02T08:59:38.930Z,75
2018-05-02T08:59:59.367Z,75
2018-05-02T09:00:19.849Z,75
2018-05-02T09:00:40.324Z,75
2018-05-02T09:01:01.341Z,75
2018-05-02T09:01:21.638Z,80
2018-05-02T09:01:42.057Z,80
2018-05-02T09:02:02.471Z,80
2018-05-02T09:02:22.761Z,80
2018-05-02T09:02:43.033Z,80
2018-05-02T09:03:03.370Z,80
2018-05-02T09:03:24.319Z,80
2018-05-02T09:03:44.771Z,80
2018-05-02T09:04:05.796Z,80
2018-05-02T09:04:26.141Z,75
2018-05-02T09:04:46.667Z,75
2018-05-02T09:05:07.200Z,75
2018-05-02T09:05:27.746Z,75
2018-05-02T09:05:48.134Z,75
2018-05-02T09:06:08.763Z,75
2018-05-02T09:06:29.475Z,75
2018-05-02T09:06:49.994Z,70
2018-05-02T09:07:10.639Z,70
2018-05-02T09:07:31.089Z,70
2018-05-02T09:07:52.954Z,70
2018-05-02T09:08:13.201Z,70
2018-05-02T09:08:33.565Z,70
2018-05-02T09:08:54.008Z,70
2018-05-02T09:09:15.409Z,65
2018-05-02T09:09:35.831Z,70
2018-05-02T09:09:56.303Z,70
2018-05-02T09:10:16.578Z,70
2018-05-02T09:10:36.837Z,70
2018-05-02T09:10:57.922Z,70
2018-05-02T09:11:18.244Z,70
2018-05-02T09:11:38.664Z,75
2018-05-02T09:11:58.976Z,75
2018-05-02T09:12:19.349Z,75
2018-05-02T09:12:39.658Z,75
2018-05-02T09:12:59.954Z,75
2018-05-02T09:13:20.297Z,75
2018-05-02T09:13:40.666Z,75
2018-05-02T09:14:01.022Z,85
2018-05-02T09:14:21.906Z,80
2018-05-02T09:14:42.821Z,85
2018-05-02T09:15:03.224Z,85
2018-05-02T09:15:24.402Z,85
2018-05-02T09:15:44.703Z,85
2018-05-02T09:16:05.123Z,85
2018-05-02T09:16:25.966Z,85
2018-05-02T09:16:46.232Z,85
2018-05-02T09:17:06.607Z,85
2018-05-02T09:17:27.962Z,85
2018-05-02T09:17:48.850Z,85
2018-05-02T09:18:09.274Z,85
2018-05-02T09:18:29.618Z,85
2018-05-02T09:18:50.110Z,80
2018-05-02T09:19:10.569Z,80
2018-05-02T09:19:30.918Z,80
2018-05-02T09:19:51.944Z,80
2018-05-02T09:20:12.443Z,80
2018-05-02T09:20:32.869Z,80
2018-05-02T09:20:53.190Z,80
2018-05-02T09:21:14.422Z,85
2018-05-02T09:21:34.739Z,85
2018-05-02T09:21:55.191Z,85
2018-05-02T09:22:15.623Z,85
2018-05-02T09:22:36.153Z,85
2018-05-02T09:22:57.256Z,85
2018-05-02T09:23:17.580Z,85
2018-05-02T09:23:37.940Z,85
2018-05-02T09:23:58.245Z,90
2018-05-02T09:24:19.307Z,95
2018-05-02T09:24:39.732Z,100
2018-05-02T09:25:00.982Z,100
2018-05-02T09:25:21.314Z,100
2018-05-02T09:25:41.838Z,100
2018-05-02T09:26:02.114Z,100
2018-05-02T09:26:23.230Z,95
2018-05-02T09:26:44.760Z,95
2018-05-02T09:27:05.141Z,90
2018-05-02T09:27:25.770Z,90
2018-05-02T09:27:46.176Z,85
2018-05-02T09:28:06.580Z,85
2018-05-02T09:28:26.938Z,85
2018-05-02T09:28:47.275Z,85
2018-05-02T09:29:07.696Z,80
2018-05-02T09:29:28.972Z,80
2018-05-02T09:29:50.396Z,80
2018-05-02T09:30:11.887Z,80
2018-05-02T09:30:32.341Z,80
2018-05-02T09:30:52.634Z,80
2018-05-02T09:31:14.402Z,80
2018-05-02T09:31:34.965Z,80
2018-05-02T09:31:55.364Z,80
2018-05-02T09:32:15.738Z,80
2018-05-02T09:32:36.117Z,85
2018-05-02T09:32:57.876Z,80
2018-05-02T09:33:18.807Z,80
2018-05-02T09:33:39.275Z,80
2018-05-02T09:34:00.461Z,85
2018-05-02T09:34:21.171Z,85
2018-05-02T09:34:41.604Z,85
2018-05-02T09:35:02.053Z,85
2018-05-02T09:35:22.513Z,85
2018-05-02T09:35:44.091Z,85
2018-05-02T09:36:04.527Z,85
2018-05-02T09:36:24.886Z,80
2018-05-02T09:36:45.310Z,80
2018-05-02T09:37:05.818Z,80
2018-05-02T09:37:26.347Z,80
2018-05-02T09:37:46.700Z,80
2018-05-02T09:38:07.862Z,80
2018-05-02T09:38:28.257Z,80
2018-05-02T09:38:48.590Z,80
2018-05-02T09:39:09.135Z,80
2018-05-02T09:39:29.480Z,85
2018-05-02T09:39:50.090Z,85
2018-05-02T09:40:10.519Z,85
2018-05-02T09:40:31.026Z,85
2018-05-02T09:40:51.500Z,85
2018-05-02T09:41:11.977Z,85
2018-05-02T09:41:32.413Z,85
2018-05-02T09:41:52.843Z,85
2018-05-02T09:42:13.091Z,85
2018-05-02T09:42:33.524Z,85
2018-05-02T09:42:55.027Z,85
2018-05-02T09:43:16.842Z,85
2018-05-02T09:43:37.926Z,85
2018-05-02T09:43:58.387Z,85
2018-05-02T09:44:19.036Z,80
2018-05-02T09:44:39.523Z,80
2018-05-02T09:45:00.172Z,80
2018-05-02T09:45:20.682Z,80
2018-05-02T09:45:41.047Z,75
2018-05-02T09:46:01.629Z,75
2018-05-02T09:46:22.015Z,75
2018-05-02T09:46:42.659Z,75
2018-05-02T09:47:03.252Z,75
2018-05-02T09:47:24.452Z,75
2018-05-02T09:47:45.096Z,75
2018-05-02T09:48:05.650Z,75
2018-05-02T09:48:26.182Z,75
2018-05-02T09:48:46.722Z,75
2018-05-02T09:49:08.349Z,75
2018-05-02T09:49:29.427Z,70
2018-05-02T09:49:50.563Z,70
2018-05-02T09:50:11.506Z,75
2018-05-02T09:50:32.547Z,75
2018-05-02T09:50:53.008Z,75
2018-05-02T09:51:14.611Z,75
2018-05-02T09:51:35.044Z,75
2018-05-02T09:51:55.508Z,75
2018-05-02T09:52:16.144Z,75
2018-05-02T09:52:37.522Z,75
2018-05-02T09:52:57.844Z,70
2018-05-02T09:53:18.305Z,75
2018-05-02T09:53:38.931Z,75
2018-05-02T09:54:00.113Z,75
2018-05-02T09:54:20.809Z,70
2018-05-02T09:54:41.395Z,70
2018-05-02T09:55:01.814Z,70
2018-05-02T09:55:22.197Z,70
2018-05-02T09:55:42.567Z,70
2018-05-02T09:56:04.522Z,70
2018-05-02T09:56:26.342Z,70
2018-05-02T09:56:46.722Z,70
2018-05-02T09:57:07.200Z,70
2018-05-02T09:57:27.849Z,70
2018-05-02T09:57:48.980Z,75
2018-05-02T09:58:10.618Z,75
2018-05-02T09:58:31.248Z,75
2018-05-02T09:58:51.936Z,75
2018-05-02T09:59:12.476Z,75
2018-05-02T09:59:32.966Z,75
2018-05-02T09:59:55.052Z,75
2018-05-02T10:00:15.741Z,75
2018-05-02T10:00:36.435Z,75
2018-05-02T10:00:57.088Z,75
2018-05-02T10:01:17.723Z,75
2018-05-02T10:01:38.122Z,75
2018-05-02T10:01:59.406Z,75
2018-05-02T10:02:19.998Z,75
2018-05-02T10:02:40.777Z,75
2018-05-02T10:03:01.405Z,75
2018-05-02T10:03:22.684Z,75
2018-05-02T10:03:44.451Z,75
2018-05-02T10:04:05.539Z,75
2018-05-02T10:04:27.822Z,75
2018-05-02T10:04:48.513Z,80
2018-05-02T10:05:08.863Z,80
2018-05-02T10:05:29.362Z,80
2018-05-02T10:05:49.880Z,80
2018-05-02T10:06:10.604Z,80
2018-05-02T10:06:31.171Z,80
2018-05-02T10:06:52.404Z,80
2018-05-02T10:07:12.772Z,80
2018-05-02T10:07:33.492Z,80
2018-05-02T10:07:53.789Z,80
2018-05-02T10:08:14.209Z,80
2018-05-02T10:08:36.519Z,85
2018-05-02T10:08:57.173Z,85
2018-05-02T10:09:18.014Z,85
2018-05-02T10:09:38.534Z,85
2018-05-02T10:09:59.235Z,85
2018-05-02T10:10:20.414Z,85
2018-05-02T10:10:41.022Z,85
2018-05-02T10:11:02.466Z,85
2018-05-02T10:11:22.991Z,85
2018-05-02T10:11:44.119Z,85
2018-05-02T10:12:04.581Z,80
2018-05-02T10:12:24.933Z,80
2018-05-02T10:12:46.041Z,75
2018-05-02T10:13:06.677Z,75
2018-05-02T10:13:27.628Z,75
2018-05-02T10:13:48.182Z,80
2018-05-02T10:14:09.506Z,75
2018-05-02T10:14:31.414Z,80
2018-05-02T10:14:51.900Z,80
2018-05-02T10:15:12.579Z,80
2018-05-02T10:15:32.995Z,80
2018-05-02T10:15:53.446Z,85
2018-05-02T10:16:14.539Z,85
2018-05-02T10:16:35.446Z,85
2018-05-02T10:16:55.642Z,85
2018-05-02T10:17:17.029Z,80
2018-05-02T10:17:37.505Z,80
2018-05-02T10:17:58.326Z,75
2018-05-02T10:18:19.466Z,75
2018-05-02T10:18:40.286Z,70
2018-05-02T10:19:01.060Z,70
2018-05-02T10:19:21.683Z,70
2018-05-02T10:19:43.996Z,70
2018-05-02T10:20:04.598Z,70
2018-05-02T10:20:25.284Z,70
2018-05-02T10:20:46.846Z,70
2018-05-02T10:21:07.906Z,70
2018-05-02T10:21:28.223Z,70
2018-05-02T10:21:49.721Z,70
2018-05-02T10:22:10.167Z,75
2018-05-02T10:22:31.758Z,80
2018-05-02T10:22:52.303Z,75
2018-05-02T10:23:14.043Z,75
2018-05-02T10:23:34.678Z,75
2018-05-02T10:23:55.282Z,75
2018-05-02T10:24:15.865Z,75
2018-05-02T10:24:36.415Z,75
2018-05-02T10:24:57.106Z,75
2018-05-02T10:25:17.635Z,80
2018-05-02T10:25:38.174Z,80
2018-05-02T10:25:59.609Z,80
2018-05-02T10:26:21.651Z,80
2018-05-02T10:26:42.415Z,80
2018-05-02T10:27:03.032Z,75
2018-05-02T10:27:23.735Z,75
2018-05-02T10:27:44.217Z,75
2018-05-02T10:28:06.067Z,75
2018-05-02T10:28:26.413Z,75
2018-05-02T10:28:47.016Z,70
2018-05-02T10:29:07.972Z,70
2018-05-02T10:29:28.839Z,70
2018-05-02T10:29:49.281Z,70
2018-05-02T10:30:09.842Z,70
2018-05-02T10:30:31.101Z,70
2018-05-02T10:30:51.915Z,75
2018-05-02T10:31:12.966Z,75
2018-05-02T10:31:33.578Z,75
2018-05-02T10:31:55.182Z,75
2018-05-02T10:32:16.626Z,80
2018-05-02T10:32:37.300Z,80
2018-05-02T10:32:57.750Z,80
2018-05-02T10:33:18.249Z,80
2018-05-02T10:33:38.655Z,80
2018-05-02T10:34:00.041Z,80
2018-05-02T10:34:20.974Z,80
2018-05-02T10:34:41.501Z,80
2018-05-02T10:35:02.058Z,80
2018-05-02T10:35:22.626Z,80
2018-05-02T10:35:43.006Z,80
2018-05-02T10:36:03.644Z,80
2018-05-02T10:36:24.451Z,80
2018-05-02T10:36:45.241Z,75
2018-05-02T10:37:06.289Z,75
2018-05-02T10:37:27.617Z,75
2018-05-02T10:37:49.299Z,75
2018-05-02T10:38:12.535Z,80
2018-05-02T10:38:33.441Z,80
2018-05-02T10:38:55.456Z,80
2018-05-02T10:39:16.989Z,80
2018-05-02T10:39:37.636Z,80
2018-05-02T10:39:58.952Z,80
2018-05-02T10:40:19.832Z,85
2018-05-02T10:40:41.041Z,85
2018-05-02T10:41:01.723Z,85
2018-05-02T10:41:22.680Z,90
2018-05-02T10:41:44.251Z,90
2018-05-02T10:42:05.198Z,90
2018-05-02T10:42:25.909Z,95
2018-05-02T10:42:46.907Z,95
2018-05-02T10:43:07.342Z,95
2018-05-02T10:43:28.196Z,95
2018-05-02T10:43:49.498Z,95
2018-05-02T10:44:11.574Z,95
2018-05-02T10:44:32.496Z,95
2018-05-02T10:44:53.358Z,100
2018-05-02T10:45:13.969Z,100
2018-05-02T10:45:36.549Z,100
2018-05-02T10:45:57.814Z,95
2018-05-02T10:46:18.796Z,95
2018-05-02T10:46:40.012Z,95
2018-05-02T10:47:00.491Z,100
2018-05-02T10:47:22.320Z,100
2018-05-02T10:47:44.081Z,100
2018-05-02T10:48:04.796Z,95
2018-05-02T10:48:25.583Z,100
2018-05-02T10:48:46.259Z,100
2018-05-02T10:49:07.769Z,95
2018-05-02T10:49:29.182Z,95
2018-05-02T10:49:50.670Z,100
2018-05-02T10:50:12.630Z,100
2018-05-02T10:50:35.711Z,95
2018-05-02T10:50:56.764Z,90
2018-05-02T10:51:18.515Z,90
2018-05-02T10:51:40.033Z,95
2018-05-02T10:52:00.838Z,90
2018-05-02T10:52:22.039Z,85
2018-05-02T10:52:42.879Z,85
2018-05-02T10:53:04.699Z,85
2018-05-02T10:53:27.375Z,85
2018-05-02T10:53:48.070Z,80
2018-05-02T10:54:08.907Z,80
2018-05-02T10:54:30.538Z,80
2018-05-02T10:54:52.538Z,80
2018-05-02T10:55:13.709Z,80
2018-05-02T10:55:34.650Z,80
2018-05-02T10:55:55.957Z,80
2018-05-02T10:56:16.743Z,80
2018-05-02T10:56:37.656Z,80
2018-05-02T10:57:01.042Z,80
2018-05-02T10:57:22.494Z,80
2018-05-02T10:57:43.098Z,80
2018-05-02T10:58:04.045Z,80
2018-05-02T10:58:25.484Z,80
2018-05-02T10:58:46.103Z,80
2018-05-02T10:59:06.700Z,80
2018-05-02T10:59:27.415Z,80
2018-05-02T10:59:48.779Z,80
2018-05-02T11:00:09.804Z,80
2018-05-02T11:00:31.117Z,80
2018-05-02T11:00:52.170Z,80
2018-05-02T11:01:14.241Z,80
2018-05-02T11:01:34.704Z,80
2018-05-02T11:01:55.728Z,80
2018-05-02T11:02:17.349Z,80
2018-05-02T11:02:38.549Z,80
2018-05-02T11:02:59.288Z,80
2018-05-02T11:03:20.077Z,80
2018-05-02T11:03:41.503Z,80
2018-05-02T11:04:03.000Z,80
2018-05-02T11:04:23.826Z,80
2018-05-02T11:04:44.540Z,85
2018-05-02T11:05:05.222Z,85
2018-05-02T11:05:25.851Z,85
2018-05-02T11:05:46.968Z,85
2018-05-02T11:06:09.263Z,85
2018-05-02T11:06:30.680Z,85
2018-05-02T11:06:52.111Z,85
2018-05-02T11:07:13.526Z,85
2018-05-02T11:07:35.083Z,85
2018-05-02T11:07:55.693Z,85
2018-05-02T11:08:18.096Z,85
2018-05-02T11:08:38.589Z,85
2018-05-02T11:08:59.254Z,85
2018-05-02T11:09:20.101Z,85
2018-05-02T11:09:40.708Z,85
2018-05-02T11:10:01.586Z,85
2018-05-02T11:10:23.509Z,85
2018-05-02T11:10:43.887Z,85
2018-05-02T11:11:06.044Z,85
2018-05-02T11:11:26.780Z,90
2018-05-02T11:11:48.008Z,90
2018-05-02T11:12:08.511Z,90
2018-05-02T11:12:28.978Z,90
2018-05-02T11:12:49.565Z,90
2018-05-02T11:13:12.072Z,90
2018-05-02T11:13:32.930Z,90
2018-05-02T11:13:53.816Z,85
2018-05-02T11:14:15.097Z,85
2018-05-02T11:14:35.999Z,85
2018-05-02T11:14:57.056Z,85
2018-05-02T11:15:17.255Z,85
2018-05-02T11:15:37.498Z,85
2018-05-02T11:15:57.853Z,85
2018-05-02T11:16:18.266Z,85
2018-05-02T11:16:38.633Z,85
2018-05-02T11:16:58.875Z,85
2018-05-02T11:17:21.413Z,85
2018-05-02T11:17:41.618Z,85
2018-05-02T11:18:03.531Z,80
2018-05-02T11:18:23.843Z,80
2018-05-02T11:18:44.300Z,80
2018-05-02T11:19:04.638Z,80
2018-05-02T11:19:25.618Z,80
2018-05-02T11:19:45.971Z,80
2018-05-02T11:20:06.374Z,80
2018-05-02T11:20:26.729Z,85
2018-05-02T11:20:48.077Z,85
2018-05-02T11:21:08.960Z,85
2018-05-02T11:21:31.399Z,85
2018-05-02T11:21:51.653Z,90
2018-05-02T11:22:13.102Z,90
2018-05-02T11:22:33.358Z,90
2018-05-02T11:22:53.515Z,95
2018-05-02T11:23:13.828Z,95
2018-05-02T11:23:34.064Z,95
2018-05-02T11:23:55.096Z,95
2018-05-02T11:24:15.511Z,90
2018-05-02T11:24:35.883Z,90
2018-05-02T11:24:56.076Z,90
2018-05-02T11:25:16.351Z,90
2018-05-02T11:25:37.407Z,90
2018-05-02T11:25:57.616Z,90
2018-05-02T11:26:18.621Z,95
2018-05-02T11:26:38.799Z,95
2018-05-02T11:26:59.348Z,90
2018-05-02T11:27:20.360Z,90
2018-05-02T11:27:40.626Z,90
2018-05-02T11:28:00.849Z,90
2018-05-02T11:28:21.415Z,90
2018-05-02T11:28:42.009Z,85
2018-05-02T11:29:02.827Z,85
2018-05-02T11:29:24.024Z,85
2018-05-02T11:29:44.427Z,80
2018-05-02T11:30:04.767Z,80
2018-05-02T11:30:25.159Z,80
2018-05-02T11:30:45.502Z,75
2018-05-02T11:31:05.838Z,75
2018-05-02T11:31:26.946Z,75
2018-05-02T11:31:47.063Z,75
2018-05-02T11:32:07.413Z,70